Time;durP1;ratioP1;P1;durP2;ratioP2;P2;SDS_P1;SDS_P2;PMS_P1;PMS_P2;Temp;Humidity;BMP_temperature;BMP_pressure;BME280_temperature;BME280_humidity;BME280_pressure;Samples;Min_cycle;Max_cycle;Signal;HPM_P1;HPM_P2
2023/04/02 00:01:19;;;;;;;6.30;5.20;;;;;;;6.94;82.01;99549.00;103671;280;38392;-73
2023/04/02 00:04:21;;;;;;;5.90;5.00;;;;;;;6.92;81.82;99552.37;103661;268;39317;-73
2023/04/02 00:07:00;;;;;;;7.10;5.90;;;;;;;6.89;81.88;99550.39;103677;280;39150;-75
2023/04/02 00:09:38;;;;;;;8.00;5.90;;;;;;;6.91;81.97;99554.86;103661;280;38283;-74
2023/04/02 00:12:22;;;;;;;6.30;5.70;;;;;;;6.89;82.06;99559.77;103659;280;40433;-72
2023/04/02 00:14:58;;;;;;;7.10;6.00;;;;;;;6.87;82.12;99566.77;103671;280;38296;-75
2023/04/02 00:17:32;;;;;;;7.50;5.80;;;;;;;6.86;82.24;99561.29;103556;281;38512;-75
2023/04/02 00:20:11;;;;;;;7.80;6.30;;;;;;;6.88;82.25;99563.45;103662;280;39250;-74
2023/04/02 00:22:47;;;;;;;7.50;6.70;;;;;;;6.89;82.34;99565.48;103687;280;38424;-73
2023/04/02 00:25:20;;;;;;;8.50;6.70;;;;;;;6.86;82.27;99566.30;103661;280;38622;-72
2023/04/02 00:27:54;;;;;;;9.50;7.90;;;;;;;6.84;82.48;99572.41;103675;280;38852;-75
2023/04/02 00:30:28;;;;;;;9.40;7.40;;;;;;;6.82;82.43;99573.00;103669;280;38281;-73
2023/04/02 00:33:02;;;;;;;9.30;7.40;;;;;;;6.81;82.67;99577.89;103661;280;38600;-74
2023/04/02 00:35:38;;;;;;;8.00;6.50;;;;;;;6.80;82.75;99577.27;103632;280;38721;-76
2023/04/02 00:38:18;;;;;;;9.30;7.20;;;;;;;6.81;82.81;99580.70;103623;280;38274;-75
2023/04/02 00:40:56;;;;;;;9.00;7.40;;;;;;;6.81;82.88;99581.72;103624;268;38400;-74
2023/04/02 00:43:31;;;;;;;8.40;7.30;;;;;;;6.80;83.00;99581.57;103524;280;175091;-76
2023/04/02 00:46:09;;;;;;;7.70;6.20;;;;;;;6.79;82.92;99584.93;103512;280;39385;-73
2023/04/02 00:48:47;;;;;;;8.10;5.90;;;;;;;6.76;82.68;99579.45;103603;280;39396;-75
2023/04/02 00:51:24;;;;;;;10.30;6.90;;;;;;;6.74;82.52;99582.82;103662;280;39393;-71
2023/04/02 00:54:01;;;;;;;7.20;5.50;;;;;;;6.72;82.50;99586.70;103632;280;38825;-71
2023/04/02 00:56:37;;;;;;;6.70;5.40;;;;;;;6.68;82.26;99587.87;103580;280;38282;-74
2023/04/02 00:59:27;;;;;;;6.60;5.90;;;;;;;6.64;82.12;99589.42;103666;280;39454;-74
2023/04/02 01:02:17;;;;;;;6.70;5.10;;;;;;;6.61;82.13;99591.44;103641;280;38270;-74
2023/04/02 01:04:57;;;;;;;6.90;4.80;;;;;;;6.60;82.31;99588.66;103638;280;38938;-74
2023/04/02 01:08:01;;;;;;;5.40;4.80;;;;;;;6.62;82.25;99589.15;103585;280;39455;-73
2023/04/02 01:11:00;;;;;;;5.80;4.70;;;;;;;6.60;81.97;99593.53;103612;280;38427;-71
2023/04/02 01:13:36;;;;;;;5.40;4.00;;;;;;;6.54;81.59;99596.70;103623;280;38504;-71
2023/04/02 01:16:14;;;;;;;4.90;4.40;;;;;;;6.47;81.63;99600.21;103606;280;38399;-74
2023/04/02 01:18:55;;;;;;;5.00;4.40;;;;;;;6.45;81.65;99602.20;103626;280;38275;-72
2023/04/02 01:21:44;;;;;;;4.60;4.20;;;;;;;6.44;81.71;99600.66;103547;280;175529;-71
2023/04/02 01:24:18;;;;;;;4.00;3.60;;;;;;;6.42;81.60;99605.24;103623;280;38390;-71
2023/04/02 01:26:57;;;;;;;3.90;3.50;;;;;;;6.40;81.56;99605.30;103619;280;38487;-75
2023/04/02 01:29:32;;;;;;;4.10;3.30;;;;;;;6.39;81.45;99610.54;103616;280;39864;-75
2023/04/02 01:32:07;;;;;;;4.30;3.70;;;;;;;6.40;81.62;99612.92;103604;280;38260;-74
2023/04/02 01:34:43;;;;;;;4.20;3.80;;;;;;;6.42;81.55;99616.69;103224;280;537729;-74
2023/04/02 01:37:33;;;;;;;4.50;4.00;;;;;;;6.41;81.42;99615.14;103562;280;38407;-75
2023/04/02 01:40:31;;;;;;;4.70;3.90;;;;;;;6.39;81.44;99613.98;103658;280;38481;-73
2023/04/02 01:43:12;;;;;;;4.00;3.60;;;;;;;6.37;81.27;99618.57;103625;280;39498;-76
2023/04/02 01:45:46;;;;;;;3.50;3.20;;;;;;;6.36;81.28;99620.33;103645;280;39674;-74
2023/04/02 01:48:26;;;;;;;4.60;3.10;;;;;;;6.36;81.15;99629.00;103640;280;38453;-73
2023/04/02 01:51:02;;;;;;;4.30;3.70;;;;;;;6.37;81.23;99628.11;103518;280;38817;-72
2023/04/02 01:53:36;;;;;;;4.10;3.70;;;;;;;6.36;81.16;99632.63;103613;280;38243;-76
2023/04/02 01:56:10;;;;;;;4.00;3.60;;;;;;;6.33;81.16;99640.84;103645;280;39438;-72
2023/04/02 01:58:44;;;;;;;3.80;3.40;;;;;;;6.30;81.14;99641.33;103624;280;39653;-71
2023/04/02 02:01:18;;;;;;;4.20;3.60;;;;;;;6.28;81.12;99643.98;103627;280;39690;-75
2023/04/02 02:03:52;;;;;;;4.90;4.30;;;;;;;6.27;81.09;99644.73;103561;280;38617;-70
2023/04/02 02:06:26;;;;;;;4.40;4.00;;;;;;;6.26;81.19;99644.92;103656;280;39765;-70
2023/04/02 02:09:03;;;;;;;4.20;3.80;;;;;;;6.26;81.23;99647.01;103503;280;38714;-71
2023/04/02 02:11:37;;;;;;;3.70;3.40;;;;;;;6.26;81.24;99653.91;103620;280;38660;-72
2023/04/02 02:14:15;;;;;;;4.60;4.10;;;;;;;6.27;81.30;99656.52;103454;271;38746;-73
2023/04/02 02:16:49;;;;;;;4.10;3.70;;;;;;;6.27;81.22;99657.54;103702;280;38893;-70
2023/04/02 02:19:28;;;;;;;5.50;4.20;;;;;;;6.26;81.25;99661.53;103620;280;40682;-71
2023/04/02 02:22:09;;;;;;;5.20;4.50;;;;;;;6.25;81.18;99665.55;103689;280;38740;-73
2023/04/02 02:24:43;;;;;;;4.80;4.20;;;;;;;6.24;81.17;99665.42;103662;280;39655;-75
2023/04/02 02:27:48;;;;;;;4.40;3.80;;;;;;;6.26;81.29;99666.05;103501;280;38279;-73
2023/04/02 02:30:24;;;;;;;5.00;4.50;;;;;;;6.25;81.16;99667.11;103628;280;38470;-72
2023/04/02 02:33:03;;;;;;;4.50;4.00;;;;;;;6.24;81.19;99668.52;103636;280;38703;-73
2023/04/02 02:35:39;;;;;;;4.40;4.00;;;;;;;6.22;81.21;99669.97;103614;280;39918;-72
2023/04/02 02:38:37;;;;;;;5.30;4.40;;;;;;;6.23;81.36;99669.62;102988;280;907124;-72
2023/04/02 02:41:19;;;;;;;5.80;4.90;;;;;;;6.24;81.44;99670.77;103600;280;38625;-75
2023/04/02 02:43:59;;;;;;;5.20;4.70;;;;;;;6.24;81.32;99674.93;103660;280;38618;-75
2023/04/02 02:46:33;;;;;;;5.40;4.90;;;;;;;6.20;81.28;99674.70;103661;280;39493;-71
2023/04/02 02:49:07;;;;;;;5.90;5.20;;;;;;;6.17;81.46;99676.34;103612;280;38309;-70
2023/04/02 02:51:47;;;;;;;6.60;5.90;;;;;;;6.14;81.67;99677.31;103630;280;38365;-73
2023/04/02 02:54:22;;;;;;;6.70;5.70;;;;;;;6.13;81.87;99680.81;103636;280;39838;-72
2023/04/02 02:56:57;;;;;;;8.10;6.00;;;;;;;6.14;81.86;99682.66;103640;268;39982;-71
2023/04/02 02:59:32;;;;;;;7.10;6.40;;;;;;;6.16;82.00;99689.36;103641;280;39436;-72
2023/04/02 03:02:06;;;;;;;7.90;7.10;;;;;;;6.15;82.04;99688.19;103663;280;38275;-71
2023/04/02 03:04:40;;;;;;;9.20;7.30;;;;;;;6.13;82.10;99691.55;103613;280;38359;-73
2023/04/02 03:07:15;;;;;;;8.00;6.80;;;;;;;6.13;82.15;99696.23;103663;280;38506;-76
2023/04/02 03:09:54;;;;;;;7.20;6.50;;;;;;;6.12;82.28;99695.57;103532;280;38275;-73
2023/04/02 03:12:38;;;;;;;9.80;7.10;;;;;;;6.13;82.37;99698.81;103649;280;38885;-72
2023/04/02 03:15:19;;;;;;;8.40;7.10;;;;;;;6.14;82.57;99701.20;103626;280;39145;-75
2023/04/02 03:17:55;;;;;;;8.80;7.10;;;;;;;6.13;82.53;99703.14;103653;280;39461;-74
2023/04/02 03:20:34;;;;;;;8.30;6.90;;;;;;;6.12;82.64;99707.16;103628;280;38865;-76
2023/04/02 03:23:13;;;;;;;7.60;6.20;;;;;;;6.11;82.67;99713.08;103657;280;39450;-72
2023/04/02 03:25:50;;;;;;;8.50;6.50;;;;;;;6.11;82.80;99714.30;103659;280;39191;-72
2023/04/02 03:28:26;;;;;;;7.90;6.80;;;;;;;6.11;82.89;99718.79;103646;280;38475;-73
2023/04/02 03:31:02;;;;;;;10.60;7.90;;;;;;;6.11;83.06;99722.25;103677;280;39943;-73
2023/04/02 03:33:38;;;;;;;10.90;7.80;;;;;;;6.08;82.94;99724.42;103660;280;38611;-70
2023/04/02 03:36:19;;;;;;;11.30;8.60;;;;;;;6.08;83.12;99729.60;103634;280;39437;-74
2023/04/02 03:38:56;;;;;;;10.40;8.60;;;;;;;6.07;83.19;99737.96;103637;280;38256;-75
2023/04/02 03:41:34;;;;;;;10.30;8.70;;;;;;;6.07;83.23;99740.58;103625;280;38779;-73
2023/04/02 03:44:12;;;;;;;10.90;8.60;;;;;;;6.06;83.30;99746.13;103638;280;38394;-74
2023/04/02 03:46:49;;;;;;;10.10;8.60;;;;;;;6.09;83.60;99749.68;103509;280;38491;-73
2023/04/02 03:49:28;;;;;;;10.70;9.40;;;;;;;6.09;83.57;99752.45;103605;280;40011;-74
2023/04/02 03:52:04;;;;;;;11.70;9.00;;;;;;;6.09;83.68;99756.42;103670;280;39645;-73
2023/04/02 03:54:38;;;;;;;11.60;9.00;;;;;;;6.09;83.67;99762.15;103653;280;39796;-71
2023/04/02 03:57:18;;;;;;;12.00;8.70;;;;;;;6.07;83.55;99763.23;103661;280;38419;-75
2023/04/02 03:59:56;;;;;;;12.40;9.40;;;;;;;6.03;83.10;99769.60;103551;280;175576;-75
2023/04/02 04:02:41;;;;;;;11.10;9.50;;;;;;;5.99;83.03;99768.68;103503;280;38243;-76
2023/04/02 04:05:26;;;;;;;12.80;9.90;;;;;;;5.96;83.01;99773.27;103671;280;38291;-72
2023/04/02 04:08:01;;;;;;;12.40;9.60;;;;;;;5.93;82.93;99773.88;103649;280;38451;-73
2023/04/02 04:10:36;;;;;;;10.70;9.00;;;;;;;5.93;83.04;99779.06;103638;280;39883;-76
2023/04/02 04:13:12;;;;;;;10.20;9.00;;;;;;;5.91;82.91;99780.32;103624;280;38700;-75
2023/04/02 04:15:53;;;;;;;10.40;8.60;;;;;;;5.87;82.81;99785.76;103626;269;38250;-75
2023/04/02 04:18:36;;;;;;;10.20;8.80;;;;;;;5.83;82.81;99793.85;103671;280;39168;-71
2023/04/02 04:21:16;;;;;;;10.50;9.40;;;;;;;5.81;82.80;99795.83;103637;280;38597;-73
2023/04/02 04:23:53;;;;;;;11.90;10.20;;;;;;;5.77;82.83;99797.30;103647;280;38263;-72
2023/04/02 04:26:29;;;;;;;11.30;9.10;;;;;;;5.77;82.76;99799.39;103625;280;38594;-72
2023/04/02 04:29:11;;;;;;;10.40;9.10;;;;;;;5.79;82.79;99805.41;103631;280;38356;-72
2023/04/02 04:31:48;;;;;;;11.70;9.30;;;;;;;5.76;82.66;99811.02;103493;282;38498;-72
2023/04/02 04:34:25;;;;;;;14.20;10.30;;;;;;;5.76;82.74;99811.38;103634;280;39457;-73
2023/04/02 04:37:01;;;;;;;15.30;11.20;;;;;;;5.73;82.59;99812.65;103630;280;40053;-72
2023/04/02 04:39:41;;;;;;;13.00;10.00;;;;;;;5.71;82.36;99813.56;103594;280;38278;-70
2023/04/02 04:42:18;;;;;;;12.30;10.10;;;;;;;5.66;82.17;99818.20;103610;280;38325;-74
2023/04/02 04:44:55;;;;;;;12.80;10.20;;;;;;;5.65;82.14;99823.75;103605;280;38250;-73
2023/04/02 04:47:32;;;;;;;11.90;9.60;;;;;;;5.66;82.20;99829.44;103654;280;39448;-75
2023/04/02 04:50:08;;;;;;;13.40;10.90;;;;;;;5.65;82.25;99832.25;103608;280;38656;-74
2023/04/02 04:52:43;;;;;;;16.30;11.50;;;;;;;5.61;82.29;99843.58;103626;280;38545;-75
2023/04/02 04:55:30;;;;;;;18.20;13.40;;;;;;;5.58;82.48;99847.64;103690;280;39464;-74
2023/04/02 04:58:08;;;;;;;17.40;12.60;;;;;;;5.56;82.73;99851.85;103648;280;38256;-72
2023/04/02 05:00:47;;;;;;;19.20;13.60;;;;;;;5.56;82.93;99854.46;103600;280;38269;-74
2023/04/02 05:03:30;;;;;;;19.10;13.50;;;;;;;5.56;82.85;99860.35;103616;280;39599;-72
2023/04/02 05:06:13;;;;;;;19.90;14.50;;;;;;;5.54;83.03;99861.43;103540;280;175316;-74
2023/04/02 05:08:49;;;;;;;19.70;13.70;;;;;;;5.51;83.04;99864.27;103607;280;38490;-71
2023/04/02 05:11:26;;;;;;;18.80;13.40;;;;;;;5.51;83.08;99868.44;103695;280;39483;-71
2023/04/02 05:14:03;;;;;;;20.80;14.30;;;;;;;5.49;82.92;99869.34;103642;269;39439;-72
2023/04/02 05:16:39;;;;;;;18.70;14.30;;;;;;;5.49;82.97;99872.29;103674;280;39389;-74
2023/04/02 05:19:16;;;;;;;19.20;14.10;;;;;;;5.48;82.97;99875.08;103644;280;38895;-74
2023/04/02 05:21:52;;;;;;;18.70;14.10;;;;;;;5.47;82.85;99881.51;103652;273;40108;-72
2023/04/02 05:24:46;;;;;;;17.50;13.20;;;;;;;5.45;82.86;99887.60;103609;280;38365;-72
2023/04/02 05:27:27;;;;;;;17.30;12.80;;;;;;;5.44;82.88;99885.20;103618;280;39452;-74
2023/04/02 05:30:04;;;;;;;19.50;14.40;;;;;;;5.44;82.71;99888.66;103656;280;38494;-74
2023/04/02 05:32:42;;;;;;;18.60;13.20;;;;;;;5.47;82.74;99891.38;103583;272;175632;-73
2023/04/02 05:35:20;;;;;;;18.70;14.30;;;;;;;5.46;82.38;99901.95;103605;268;38256;-74
2023/04/02 05:37:54;;;;;;;19.10;14.50;;;;;;;5.42;82.32;99909.30;103500;280;39769;-72
2023/04/02 05:40:31;;;;;;;20.40;14.40;;;;;;;5.37;82.18;99907.88;103613;280;38736;-73
2023/04/02 05:43:07;;;;;;;18.10;14.00;;;;;;;5.35;82.09;99911.89;103621;280;38630;-73
2023/04/02 05:45:42;;;;;;;17.60;13.80;;;;;;;5.35;82.22;99907.39;103663;280;38542;-73
2023/04/02 05:48:19;;;;;;;18.50;13.40;;;;;;;5.35;82.11;99911.03;103507;280;173061;-74
2023/04/02 05:50:57;;;;;;;18.60;13.70;;;;;;;5.33;81.91;99916.42;103630;280;38503;-76
2023/04/02 05:53:33;;;;;;;16.40;11.70;;;;;;;5.33;81.61;99917.64;103668;280;38257;-71
2023/04/02 05:56:11;;;;;;;13.20;10.30;;;;;;;5.31;81.31;99924.11;103676;280;38846;-74
2023/04/02 05:58:48;;;;;;;15.30;11.10;;;;;;;5.29;81.20;99925.02;103642;280;39038;-74
2023/04/02 06:01:32;;;;;;;16.10;12.10;;;;;;;5.30;81.38;99926.53;103660;280;38965;-72
2023/04/02 06:04:13;;;;;;;15.60;12.00;;;;;;;5.29;81.19;99931.57;103606;280;38658;-70
2023/04/02 06:06:58;;;;;;;16.10;11.70;;;;;;;5.25;81.01;99934.78;103526;280;38494;-74
2023/04/02 06:09:38;;;;;;;12.20;9.00;;;;;;;5.23;80.77;99939.50;103641;280;38510;-70
2023/04/02 06:12:20;;;;;;;10.20;8.80;;;;;;;5.19;80.51;99948.92;103660;280;38302;-69
2023/04/02 06:14:54;;;;;;;12.70;9.50;;;;;;;5.16;80.41;99954.52;103637;280;38641;-72
2023/04/02 06:17:28;;;;;;;10.60;8.80;;;;;;;5.15;80.61;99960.42;103519;280;38791;-71
2023/04/02 06:20:03;;;;;;;11.20;8.50;;;;;;;5.12;80.44;99965.51;103648;280;38238;-71
2023/04/02 06:22:39;;;;;;;9.90;7.90;;;;;;;5.11;80.38;99967.95;103634;280;38271;-70
2023/04/02 06:25:19;;;;;;;8.90;7.90;;;;;;;5.13;80.32;99970.85;103648;280;38454;-71
2023/04/02 06:27:53;;;;;;;8.50;7.50;;;;;;;5.13;79.99;99971.55;103573;280;39972;-69
2023/04/02 06:30:31;;;;;;;8.60;7.60;;;;;;;5.09;79.94;99976.30;103626;280;38346;-69
2023/04/02 06:33:05;;;;;;;7.50;6.70;;;;;;;5.07;80.17;99981.00;103653;280;39831;-73
2023/04/02 06:35:41;;;;;;;9.60;6.50;;;;;;;5.07;80.19;99983.08;103624;280;38250;-72
2023/04/02 06:38:19;;;;;;;8.30;6.70;;;;;;;5.08;80.09;99985.14;103601;280;38709;-73
2023/04/02 06:40:55;;;;;;;7.50;6.40;;;;;;;5.06;79.92;99991.92;103526;280;39143;-75
2023/04/02 06:43:32;;;;;;;9.70;7.40;;;;;;;5.03;80.02;99998.56;103626;280;38258;-73
2023/04/02 06:46:10;;;;;;;8.10;7.00;;;;;;;5.03;80.24;100002.36;103581;280;175717;-74
2023/04/02 06:48:44;;;;;;;8.00;6.90;;;;;;;5.02;80.24;100005.14;103620;280;38233;-74
2023/04/02 06:51:19;;;;;;;9.60;7.40;;;;;;;5.05;80.40;100006.64;103675;280;38569;-73
2023/04/02 06:53:54;;;;;;;8.40;7.40;;;;;;;5.09;80.50;100011.75;103643;280;38875;-71
2023/04/02 06:56:39;;;;;;;10.10;8.20;;;;;;;5.10;80.43;100014.84;103670;280;37493;-73
2023/04/02 06:59:13;;;;;;;9.30;7.80;;;;;;;5.13;80.48;100018.91;103640;280;38254;-73
2023/04/02 07:01:54;;;;;;;9.20;7.70;;;;;;;5.12;80.22;100024.81;103638;280;39954;-70
2023/04/02 07:04:28;;;;;;;9.40;7.40;;;;;;;5.05;80.02;100022.19;103637;279;38941;-70
2023/04/02 07:07:02;;;;;;;7.80;6.30;;;;;;;5.03;80.15;100027.59;103652;280;38800;-71
2023/04/02 07:09:36;;;;;;;9.20;7.00;;;;;;;5.00;80.01;100028.89;103648;280;38698;-72
2023/04/02 07:12:18;;;;;;;8.90;7.30;;;;;;;4.92;80.10;100029.02;103661;280;38864;-72
2023/04/02 07:14:52;;;;;;;8.90;7.50;;;;;;;4.91;80.46;100034.59;103631;280;38631;-72
2023/04/02 07:17:26;;;;;;;9.20;7.00;;;;;;;4.90;80.64;100036.85;103640;280;38277;-75
2023/04/02 07:20:01;;;;;;;8.20;7.00;;;;;;;4.93;80.91;100039.38;103508;282;38226;-73
2023/04/02 07:22:35;;;;;;;9.00;6.90;;;;;;;4.94;80.91;100037.12;103675;280;38289;-72
2023/04/02 07:25:13;;;;;;;7.80;6.60;;;;;;;5.01;81.09;100039.92;103605;280;38305;-73
2023/04/02 07:27:47;;;;;;;7.70;6.80;;;;;;;5.04;80.97;100046.07;103619;280;39463;-74
2023/04/02 07:30:24;;;;;;;9.20;7.50;;;;;;;5.02;80.85;100051.13;103634;280;39072;-75
2023/04/02 07:32:59;;;;;;;8.40;7.50;;;;;;;5.02;80.90;100054.95;103486;280;39354;-71
2023/04/02 07:35:36;;;;;;;8.80;7.50;;;;;;;5.01;81.09;100054.61;103648;280;39357;-73
2023/04/02 07:38:11;;;;;;;9.20;6.90;;;;;;;5.00;81.06;100055.69;103666;280;38266;-71
2023/04/02 07:40:47;;;;;;;8.80;7.20;;;;;;;5.02;81.23;100064.45;103624;280;39434;-72
2023/04/02 07:43:24;;;;;;;8.70;7.60;;;;;;;5.03;81.26;100067.03;103512;280;39154;-75
2023/04/02 07:45:59;;;;;;;8.00;7.10;;;;;;;5.02;81.35;100075.36;103512;281;38672;-74
2023/04/02 07:48:37;;;;;;;10.50;8.00;;;;;;;5.01;81.53;100079.48;103567;280;39406;-76
2023/04/02 07:51:18;;;;;;;9.00;7.60;;;;;;;5.04;81.77;100081.52;103631;280;38285;-70
2023/04/02 07:53:54;;;;;;;7.40;6.60;;;;;;;5.04;81.73;100084.28;103644;280;38930;-72
2023/04/02 07:56:29;;;;;;;7.40;6.50;;;;;;;5.03;81.56;100087.93;103511;280;38542;-75
2023/04/02 07:59:03;;;;;;;8.20;6.90;;;;;;;5.03;81.46;100087.77;103668;280;37951;-73
2023/04/02 08:01:37;;;;;;;7.80;7.00;;;;;;;5.03;81.51;100084.47;103562;280;175348;-71
2023/04/02 08:04:20;;;;;;;8.60;7.80;;;;;;;5.03;81.47;100091.90;103639;280;40097;-70
2023/04/02 08:06:54;;;;;;;8.70;7.40;;;;;;;5.01;81.56;100095.41;103606;280;38251;-73
2023/04/02 08:09:28;;;;;;;9.60;7.40;;;;;;;4.97;81.57;100102.41;103679;280;38271;-73
2023/04/02 08:12:03;;;;;;;7.50;6.60;;;;;;;4.93;81.58;100104.02;103618;280;38583;-74
2023/04/02 08:14:37;;;;;;;7.90;7.10;;;;;;;4.93;81.78;100112.68;103621;280;38568;-74
2023/04/02 08:17:14;;;;;;;7.90;7.10;;;;;;;4.93;81.43;100113.88;103678;280;38351;-73
2023/04/02 08:19:49;;;;;;;8.10;7.10;;;;;;;4.94;81.71;100115.08;103692;280;38428;-72
2023/04/02 08:22:24;;;;;;;8.90;7.70;;;;;;;4.95;81.83;100119.23;103715;280;37965;-72
2023/04/02 08:24:59;;;;;;;8.80;7.80;;;;;;;4.96;81.80;100119.89;103529;280;175653;-73
2023/04/02 08:27:36;;;;;;;8.50;7.60;;;;;;;4.94;81.69;100122.34;103675;280;38293;-75
2023/04/02 08:30:13;;;;;;;8.00;6.90;;;;;;;4.95;81.83;100120.06;103671;280;38282;-73
2023/04/02 08:32:47;;;;;;;8.10;7.30;;;;;;;4.96;81.65;100116.25;103690;280;38756;-74
2023/04/02 08:35:26;;;;;;;8.80;7.80;;;;;;;4.96;81.37;100124.36;103655;280;38462;-76
2023/04/02 08:38:09;;;;;;;8.50;7.20;;;;;;;4.98;81.53;100138.52;103541;281;38930;-75
2023/04/02 08:40:45;;;;;;;8.20;7.40;;;;;;;4.98;81.39;100149.93;103681;280;38280;-72
2023/04/02 08:43:37;;;;;;;7.40;6.20;;;;;;;4.98;81.56;100155.11;103636;280;39486;-73
2023/04/02 08:46:17;;;;;;;6.50;5.70;;;;;;;4.98;81.45;100159.77;103671;280;38235;-72
2023/04/02 08:48:55;;;;;;;6.90;6.20;;;;;;;4.96;81.20;100164.14;102986;280;912932;-71
2023/04/02 08:51:32;;;;;;;7.30;5.90;;;;;;;4.93;81.29;100166.60;103641;280;39812;-73
2023/04/02 08:54:13;;;;;;;6.50;5.50;;;;;;;4.90;81.33;100166.32;103661;280;40142;-74
2023/04/02 08:56:49;;;;;;;6.50;5.60;;;;;;;4.91;81.30;100167.85;103656;280;39961;-72
2023/04/02 08:59:28;;;;;;;6.30;5.60;;;;;;;4.91;81.19;100170.43;103621;280;38815;-73
2023/04/02 09:02:12;;;;;;;6.50;5.80;;;;;;;4.90;81.16;100171.85;103706;280;38876;-76
2023/04/02 09:04:46;;;;;;;6.60;5.90;;;;;;;4.91;81.24;100175.63;103520;281;38826;-77
2023/04/02 09:07:20;;;;;;;5.90;5.30;;;;;;;4.92;81.14;100179.23;103680;280;38588;-73
2023/04/02 09:09:55;;;;;;;5.50;4.90;;;;;;;4.92;81.11;100178.02;103659;280;38503;-73
2023/04/02 09:12:30;;;;;;;6.20;5.00;;;;;;;4.93;81.22;100183.02;103679;280;38419;-75
2023/04/02 09:15:21;;;;;;;4.70;4.20;;;;;;;4.95;81.15;100183.35;103634;280;38460;-75
2023/04/02 09:18:06;;;;;;;6.40;5.40;;;;;;;4.95;80.94;100187.66;103674;280;38248;-73
2023/04/02 09:20:42;;;;;;;5.70;5.00;;;;;;;4.96;81.07;100191.95;103654;280;38273;-75
2023/04/02 09:23:19;;;;;;;6.70;5.20;;;;;;;4.99;80.91;100193.31;103629;280;38705;-73
2023/04/02 09:25:56;;;;;;;5.10;4.60;;;;;;;4.99;80.91;100192.95;103628;280;39659;-74
2023/04/02 09:28:31;;;;;;;5.00;4.30;;;;;;;5.01;81.01;100198.78;103631;280;38746;-73
2023/04/02 09:31:11;;;;;;;4.00;3.60;;;;;;;5.04;81.15;100203.94;103627;280;38767;-73
2023/04/02 09:33:47;;;;;;;5.00;4.10;;;;;;;5.05;81.03;100205.98;103188;280;613356;-73
2023/04/02 09:36:36;;;;;;;5.30;4.20;;;;;;;5.05;80.92;100202.88;103541;280;38762;-75
2023/04/02 09:39:18;;;;;;;;;;;;;;;5.08;81.16;100204.20;103686;280;38499;-74
2023/04/02 09:41:52;;;;;;;4.90;4.40;;;;;;;5.03;81.35;100201.86;103546;281;38553;-75
2023/04/02 09:44:31;;;;;;;4.80;4.30;;;;;;;5.05;81.62;100202.69;103616;280;38274;-74
2023/04/02 09:47:08;;;;;;;4.70;3.90;;;;;;;5.11;81.95;100200.85;103615;280;39463;-77
2023/04/02 09:49:42;;;;;;;4.00;3.40;;;;;;;5.20;81.60;100205.89;103629;280;39013;-75
2023/04/02 09:52:30;;;;;;;4.40;3.40;;;;;;;5.25;81.27;100208.04;103649;280;38419;-76
2023/04/02 09:55:23;;;;;;;4.10;3.70;;;;;;;5.29;81.04;100204.51;103651;280;39434;-72
2023/04/02 09:58:13;;;;;;;3.80;3.20;;;;;;;5.32;81.40;100209.96;103665;280;39404;-74
2023/04/02 10:00:55;;;;;;;4.00;3.50;;;;;;;5.33;81.54;100215.65;103607;280;39447;-75
2023/04/02 10:03:30;;;;;;;4.30;3.20;;;;;;;5.35;81.38;100219.25;103639;280;39489;-75
2023/04/02 10:06:12;;;;;;;3.80;3.40;;;;;;;5.35;81.27;100227.21;103644;280;39909;-73
2023/04/02 10:08:47;;;;;;;4.10;3.50;;;;;;;5.31;81.29;100230.41;103646;280;39642;-76
2023/04/02 10:11:24;;;;;;;4.30;3.90;;;;;;;5.29;81.48;100234.06;103643;280;38515;-74
2023/04/02 10:14:01;;;;;;;3.10;2.80;;;;;;;5.25;81.65;100236.39;103681;280;38537;-75
2023/04/02 10:16:37;;;;;;;3.30;2.90;;;;;;;5.22;81.84;100243.55;103549;280;172956;-72
2023/04/02 10:19:27;;;;;;;5.00;3.50;;;;;;;5.20;81.98;100247.55;103648;280;38837;-74
2023/04/02 10:22:03;;;;;;;4.30;3.90;;;;;;;5.23;82.30;100250.98;103661;280;38263;-76
2023/04/02 10:24:37;;;;;;;5.60;4.10;;;;;;;5.28;82.56;100253.47;103511;280;39845;-75
2023/04/02 10:27:21;;;;;;;4.10;3.60;;;;;;;5.33;82.53;100260.30;103635;280;38482;-73
2023/04/02 10:30:05;;;;;;;4.00;3.60;;;;;;;5.32;82.32;100267.39;103632;280;39994;-74
2023/04/02 10:32:42;;;;;;;4.10;3.60;;;;;;;5.28;82.24;100264.17;103671;280;38896;-74
2023/04/02 10:35:25;;;;;;;4.00;3.50;;;;;;;5.21;81.99;100263.61;103648;280;39433;-74
2023/04/02 10:38:44;;;;;;;3.80;3.20;;;;;;;5.13;82.16;100270.49;103671;279;38503;-74
2023/04/02 10:41:29;;;;;;;;;;;;;;;5.08;82.37;100275.25;103646;279;38776;-76
2023/04/02 10:44:20;;;;;;;3.90;3.50;;;;;;;5.02;82.78;100278.47;103652;278;38683;-74
2023/04/02 10:47:12;;;;;;;4.10;3.70;;;;;;;5.05;83.04;100282.73;103682;280;39398;-76
2023/04/02 10:49:50;;;;;;;4.60;3.80;;;;;;;5.04;82.89;100285.54;103632;280;38517;-76
2023/04/02 10:52:26;;;;;;;5.10;4.00;;;;;;;5.00;82.83;100290.26;103708;280;38244;-74
2023/04/02 10:55:02;;;;;;;5.40;4.00;;;;;;;4.96;83.09;100293.26;103719;280;38276;-72
2023/04/02 10:57:40;;;;;;;5.20;4.30;;;;;;;4.95;83.08;100298.48;103669;280;38370;-71
2023/04/02 11:00:24;;;;;;;4.30;3.90;;;;;;;4.96;83.07;100307.09;103654;280;39473;-74
2023/04/02 11:02:59;;;;;;;6.50;4.80;;;;;;;4.95;83.14;100306.08;103660;280;38755;-73
2023/04/02 11:05:42;;;;;;;5.90;5.00;;;;;;;4.95;83.13;100314.39;103655;276;39424;-72
2023/04/02 11:08:21;;;;;;;7.90;6.30;;;;;;;4.94;83.42;100319.05;103491;280;175596;-76
2023/04/02 11:10:58;;;;;;;7.10;5.00;;;;;;;4.93;83.54;100327.89;103677;280;39382;-75
2023/04/02 11:13:36;;;;;;;6.10;5.20;;;;;;;4.90;83.36;100333.29;103621;280;38252;-75
2023/04/02 11:16:10;;;;;;;7.40;6.00;;;;;;;4.88;83.30;100336.08;103631;280;38227;-73
2023/04/02 11:18:44;;;;;;;9.20;7.10;;;;;;;4.88;83.34;100335.92;103647;280;38267;-73
2023/04/02 11:21:41;;;;;;;7.40;6.40;;;;;;;4.87;83.31;100336.10;103626;280;39431;-75
2023/04/02 11:24:36;;;;;;;7.40;6.10;;;;;;;4.84;83.50;100336.66;103617;280;39569;-75
2023/04/02 11:27:20;;;;;;;6.80;6.00;;;;;;;4.84;83.63;100339.09;103521;280;38485;-75
2023/04/02 11:30:05;;;;;;;7.30;6.60;;;;;;;4.86;83.82;100344.59;103690;280;38293;-74
2023/04/02 11:32:41;;;;;;;7.30;6.30;;;;;;;4.85;83.67;100354.63;103656;280;38299;-74
2023/04/02 11:35:39;;;;;;;8.00;7.20;;;;;;;4.85;83.65;100358.60;103676;280;38865;-74
2023/04/02 11:38:54;;;;;;;8.40;7.20;;;;;;;4.87;83.86;100366.16;103540;280;38446;-71
2023/04/02 11:42:10;;;;;;;7.40;6.60;;;;;;;4.93;84.06;100372.83;103342;280;39680;-74
2023/04/02 11:44:46;;;;;;;8.00;7.20;;;;;;;5.01;84.28;100374.79;103413;280;38262;-74
2023/04/02 11:47:24;;;;;;;8.10;7.30;;;;;;;5.06;84.05;100373.50;103722;280;39390;-71
2023/04/02 11:50:08;;;;;;;8.60;7.70;;;;;;;5.06;84.07;100374.17;103676;280;39455;-72
2023/04/02 11:52:55;;;;;;;9.50;7.40;;;;;;;5.07;84.11;100373.82;103655;280;40500;-71
2023/04/02 11:55:34;;;;;;;7.30;6.30;;;;;;;5.09;84.29;100376.03;103688;280;38407;-72
2023/04/02 11:58:51;;;;;;;7.00;6.20;;;;;;;5.10;83.80;100385.01;103453;282;38974;-72
2023/04/02 12:01:53;;;;;;;7.00;6.30;;;;;;;5.11;84.05;100390.19;103664;280;38283;-70
2023/04/02 12:05:02;;;;;;;7.20;6.50;;;;;;;5.15;83.96;100390.48;103689;279;38392;-70
2023/04/02 12:08:11;;;;;;;7.50;6.70;;;;;;;5.10;83.67;100397.13;103625;279;38235;-70
2023/04/02 12:11:00;;;;;;;7.50;6.70;;;;;;;5.08;83.86;100396.46;103549;280;39575;-70
2023/04/02 12:13:57;;;;;;;7.30;6.60;;;;;;;5.08;83.72;100400.27;103676;280;39391;-74
2023/04/02 12:16:35;;;;;;;7.80;6.80;;;;;;;5.08;83.72;100403.90;103513;280;38352;-73
2023/04/02 12:19:13;;;;;;;8.50;7.20;;;;;;;5.09;83.87;100404.90;103675;280;38951;-73
2023/04/02 12:21:51;;;;;;;8.90;7.60;;;;;;;5.08;83.97;100412.38;103666;280;39438;-75
2023/04/02 12:24:31;;;;;;;8.20;7.40;;;;;;;5.08;84.19;100411.86;103669;280;39507;-73
2023/04/02 12:27:21;;;;;;;8.10;7.10;;;;;;;5.06;84.00;100418.45;103655;280;38341;-75
2023/04/02 12:29:56;;;;;;;8.50;6.50;;;;;;;5.05;83.93;100420.89;103642;280;38370;-78
2023/04/02 12:32:31;;;;;;;6.90;6.20;;;;;;;5.05;83.89;100424.17;103695;280;38287;-73